Time;durP1;ratioP1;P1;durP2;ratioP2;P2;SDS_P1;SDS_P2;PMS_P1;PMS_P2;Temp;Humidity;BMP_temperature;BMP_pressure;BME280_temperature;BME280_humidity;BME280_pressure;Samples;Min_cycle;Max_cycle;Signal;HPM_P1;HPM_P2
2023/04/02 00:01:31;;;;;;;9.10;5.32;;;5.30;99.90;;;;;;5054733;28;20036;-62
2023/04/02 00:04:02;;;;;;;9.13;4.70;;;5.30;99.90;;;;;;5048537;28;20025;-62
2023/04/02 00:06:33;;;;;;;7.78;4.93;;;5.20;99.90;;;;;;5057384;28;20047;-62
2023/04/02 00:09:16;;;;;;;7.85;4.20;;;5.20;99.90;;;;;;5068081;28;20087;-62
2023/04/02 00:11:47;;;;;;;7.47;4.80;;;5.20;99.90;;;;;;5059896;28;20037;-62
2023/04/02 00:14:23;;;;;;;;;;;5.10;99.90;;;;;;5072712;28;20047;-62
2023/04/02 00:16:50;;;;;;;9.75;4.65;;;5.10;99.90;;;;;;5072631;28;19916;-62
2023/04/02 00:19:27;;;;;;;8.57;5.32;;;5.10;99.90;;;;;;5072319;28;20112;-62
2023/04/02 00:21:54;;;;;;;10.40;5.53;;;5.10;99.90;;;;;;5061115;28;20437;-62
2023/04/02 00:24:21;;;;;;;8.23;5.35;;;5.10;99.90;;;;;;5068807;28;20101;-62
2023/04/02 00:26:49;;;;;;;9.30;5.60;;;5.10;99.90;;;;;;5072014;28;20048;-62
2023/04/02 00:29:16;;;;;;;12.98;5.25;;;5.10;99.90;;;;;;5072467;28;20410;-62
2023/04/02 00:31:45;;;;;;;12.85;5.68;;;5.10;99.90;;;;;;5072043;28;20402;-61
2023/04/02 00:34:37;;;;;;;8.68;6.00;;;5.10;99.90;;;;;;5072352;28;20036;-61
2023/04/02 00:37:03;;;;;;;12.05;5.30;;;5.20;99.90;;;;;;5042432;28;20049;-62
2023/04/02 00:39:37;;;;;;;12.32;6.55;;;5.10;99.90;;;;;;5067010;28;20039;-61
2023/04/02 00:42:06;;;;;;;8.90;6.03;;;5.20;99.90;;;;;;5072054;28;20051;-61
2023/04/02 00:44:43;;;;;;;8.80;5.95;;;5.10;99.90;;;;;;5053892;28;20035;-61
2023/04/02 00:47:23;;;;;;;8.02;5.10;;;5.20;99.90;;;;;;5072084;28;20109;-62
2023/04/02 00:49:58;;;;;;;7.13;4.50;;;5.10;99.90;;;;;;5053148;28;20043;-62
2023/04/02 00:52:29;;;;;;;8.32;5.60;;;5.00;99.90;;;;;;5059796;28;20035;-62
2023/04/02 00:55:06;;;;;;;8.52;5.03;;;5.00;99.90;;;;;;5062859;28;20501;-62
2023/04/02 00:57:32;;;;;;;9.93;5.45;;;4.90;99.90;;;;;;5056281;28;20048;-62
2023/04/02 01:00:10;;;;;;;11.88;5.13;;;4.90;99.90;;;;;;5054196;28;20525;-61
2023/04/02 01:02:39;;;;;;;11.32;5.25;;;4.80;99.90;;;;;;5057915;28;20044;-61
2023/04/02 01:05:13;;;;;;;7.07;5.50;;;4.80;99.90;;;;;;5071783;28;20256;-62
2023/04/02 01:08:14;;;;;;;6.63;5.55;;;4.80;99.90;;;;;;5065761;28;20036;-62
2023/04/02 01:10:57;;;;;;;10.13;6.40;;;4.80;99.90;;;;;;5057846;28;20502;-62
2023/04/02 01:13:32;;;;;;;9.40;5.75;;;4.80;99.90;;;;;;5069637;28;20406;-62
2023/04/02 01:16:06;;;;;;;8.35;6.25;;;4.80;99.90;;;;;;5065840;28;20512;-62
2023/04/02 01:18:45;;;;;;;8.52;5.70;;;4.80;99.90;;;;;;5056675;28;20055;-62
2023/04/02 01:21:51;;;;;;;9.45;5.78;;;4.80;99.90;;;;;;5066627;28;20037;-61
2023/04/02 01:24:17;;;;;;;9.45;4.82;;;4.70;99.90;;;;;;5071153;28;20048;-62
2023/04/02 01:27:19;;;;;;;7.97;4.72;;;4.70;99.90;;;;;;5053755;28;20383;-62
2023/04/02 01:29:57;;;;;;;8.55;4.82;;;4.70;99.90;;;;;;5015617;28;20084;-62
2023/04/02 01:32:25;;;;;;;9.80;4.03;;;4.60;99.90;;;;;;5065835;28;20051;-61
2023/04/02 01:34:52;;;;;;;8.02;4.45;;;4.60;99.90;;;;;;5071479;28;20033;-62
2023/04/02 01:37:23;;;;;;;8.30;4.63;;;4.50;99.90;;;;;;5064719;28;20044;-61
2023/04/02 01:40:33;;;;;;;5.45;3.92;;;4.50;99.90;;;;;;5071304;28;20397;-62
2023/04/02 01:43:22;;;;;;;6.78;4.10;;;4.40;99.90;;;;;;5066090;28;20048;-62
2023/04/02 01:45:49;;;;;;;7.57;3.80;;;4.40;99.90;;;;;;5064532;28;20041;-62
2023/04/02 01:48:18;;;;;;;5.28;3.65;;;4.30;99.90;;;;;;5066298;28;20087;-61
2023/04/02 01:50:46;;;;;;;6.65;3.88;;;4.30;99.90;;;;;;5057027;28;20069;-62
2023/04/02 01:53:14;;;;;;;5.30;3.15;;;4.20;99.90;;;;;;5064652;28;20052;-61
2023/04/02 01:55:51;;;;;;;5.43;2.65;;;4.20;99.90;;;;;;5070951;28;20028;-61
2023/04/02 01:58:20;;;;;;;4.35;2.78;;;4.10;99.90;;;;;;5071419;28;20385;-62
2023/04/02 02:00:52;;;;;;;6.20;3.00;;;4.00;99.90;;;;;;5062043;28;20083;-62
2023/04/02 02:03:19;;;;;;;6.22;2.75;;;4.00;99.90;;;;;;5048273;28;20116;-61
2023/04/02 02:05:45;;;;;;;8.02;2.50;;;3.90;99.90;;;;;;5054270;28;20127;-62
2023/04/02 02:08:30;;;;;;;5.53;2.17;;;3.90;99.90;;;;;;5071208;28;20036;-62
2023/04/02 02:10:56;;;;;;;2.90;1.77;;;3.90;99.90;;;;;;5052908;28;20040;-61
2023/04/02 02:13:22;;;;;;;6.32;2.28;;;3.80;99.90;;;;;;5053171;28;20557;-61
2023/04/02 02:15:48;;;;;;;6.50;2.10;;;3.80;99.90;;;;;;5071111;28;20115;-62
2023/04/02 02:18:19;;;;;;;5.30;2.53;;;3.70;99.90;;;;;;5070404;28;20044;-61
2023/04/02 02:20:46;;;;;;;4.22;2.13;;;3.70;99.90;;;;;;5065148;28;20166;-61
2023/04/02 02:23:12;;;;;;;6.72;2.60;;;3.80;99.90;;;;;;5056688;28;20074;-61
2023/04/02 02:25:38;;;;;;;5.00;2.80;;;3.70;99.90;;;;;;5056442;28;20157;-61
2023/04/02 02:28:09;;;;;;;5.18;3.20;;;3.70;99.90;;;;;;5074591;28;20525;-61
2023/04/02 02:30:40;;;;;;;7.15;3.08;;;3.60;99.90;;;;;;5074702;28;20044;-62
2023/04/02 02:33:15;;;;;;;;;;;3.60;99.90;;;;;;5069434;28;20033;-62
2023/04/02 02:36:06;;;;;;;5.22;2.33;;;3.50;99.90;;;;;;5063532;28;19917;-61
2023/04/02 02:38:51;;;;;;;5.45;2.90;;;3.40;99.90;;;;;;5059331;28;20498;-62
2023/04/02 02:41:38;;;;;;;3.65;2.05;;;3.40;99.90;;;;;;5074298;28;20072;-62
2023/04/02 02:44:16;;;;;;;5.18;2.70;;;3.30;99.90;;;;;;5074414;28;20040;-61
2023/04/02 02:46:51;;;;;;;8.00;2.42;;;3.30;99.90;;;;;;5074257;28;20442;-62
2023/04/02 02:49:22;;;;;;;6.20;2.85;;;3.20;99.90;;;;;;5068155;28;20155;-61
2023/04/02 02:51:59;;;;;;;4.88;2.35;;;3.20;99.90;;;;;;5065436;28;20033;-61
2023/04/02 02:54:27;;;;;;;6.25;2.70;;;3.10;99.90;;;;;;5065585;28;20120;-61
2023/04/02 02:56:59;;;;;;;6.38;3.10;;;3.10;99.90;;;;;;5050892;28;20036;-62
2023/04/02 02:59:26;;;;;;;5.65;2.53;;;3.00;99.90;;;;;;5056283;28;20123;-62
2023/04/02 03:01:52;;;;;;;5.50;2.47;;;3.00;99.90;;;;;;5073748;28;20037;-61
2023/04/02 03:04:21;;;;;;;4.18;2.08;;;3.00;99.90;;;;;;5050959;28;20123;-61
2023/04/02 03:06:51;;;;;;;6.40;2.90;;;2.90;99.90;;;;;;5055809;28;20048;-61
2023/04/02 03:09:51;;;;;;;5.60;2.67;;;2.90;99.90;;;;;;5066324;28;20048;-62
2023/04/02 03:12:22;;;;;;;8.27;3.03;;;2.90;99.90;;;;;;5072030;28;20122;-61
2023/04/02 03:15:14;;;;;;;7.05;3.30;;;2.80;99.90;;;;;;5073657;28;20640;-61
2023/04/02 03:18:17;;;;;;;5.30;3.00;;;2.80;99.90;;;;;;5069020;28;20519;-61
2023/04/02 03:20:50;;;;;;;5.38;2.88;;;2.70;99.90;;;;;;5048613;28;20441;-61
2023/04/02 03:23:37;;;;;;;4.70;2.90;;;2.70;99.90;;;;;;5073688;28;20041;-61
2023/04/02 03:26:15;;;;;;;2.67;2.30;;;2.70;99.90;;;;;;5072628;28;20052;-62
2023/04/02 03:28:46;;;;;;;4.88;2.50;;;2.70;99.90;;;;;;5048582;28;20514;-61
2023/04/02 03:31:14;;;;;;;;;;;2.70;99.90;;;;;;5071124;28;20081;-61
2023/04/02 03:33:51;;;;;;;10.85;3.45;;;2.60;99.90;;;;;;5067295;28;19970;-61
2023/04/02 03:36:24;;;;;;;6.05;2.95;;;2.70;99.90;;;;;;5072798;28;20555;-62
2023/04/02 03:39:03;;;;;;;8.88;3.20;;;2.70;99.90;;;;;;5074098;28;20056;-62
2023/04/02 03:41:58;;;;;;;4.38;2.50;;;2.60;99.90;;;;;;5072888;28;20554;-62
2023/04/02 03:44:45;;;;;;;4.55;3.13;;;2.70;99.90;;;;;;5039988;28;20042;-61
2023/04/02 03:47:32;;;;;;;5.25;2.78;;;2.70;99.90;;;;;;5043243;28;20406;-61
2023/04/02 03:50:33;;;;;;;6.47;3.45;;;2.60;99.90;;;;;;5072946;28;20039;-61
2023/04/02 03:53:00;;;;;;;5.88;3.15;;;2.60;99.90;;;;;;5072760;28;20444;-61
2023/04/02 03:55:28;;;;;;;5.63;3.13;;;2.60;99.90;;;;;;5072967;28;20075;-61
2023/04/02 03:58:02;;;;;;;7.03;3.83;;;2.70;99.90;;;;;;5070296;28;20047;-61
2023/04/02 04:01:00;;;;;;;5.53;3.70;;;2.70;99.90;;;;;;5043188;28;20538;-63
2023/04/02 04:03:35;;;;;;;4.60;2.90;;;2.70;99.90;;;;;;5054077;28;20044;-62
2023/04/02 04:06:06;;;;;;;4.90;3.33;;;2.70;99.90;;;;;;5044007;28;20044;-61
2023/04/02 04:08:41;;;;;;;6.03;2.90;;;2.70;99.90;;;;;;5051037;28;20037;-61
2023/04/02 04:11:12;;;;;;;5.97;2.67;;;2.60;99.90;;;;;;5051616;28;20371;-61
2023/04/02 04:14:05;;;;;;;6.97;3.33;;;2.60;99.90;;;;;;5052253;28;20083;-61
2023/04/02 04:16:38;;;;;;;5.50;2.97;;;2.60;99.90;;;;;;5054551;28;20040;-63
2023/04/02 04:19:16;;;;;;;7.93;3.70;;;2.60;99.90;;;;;;5057613;28;20037;-63
2023/04/02 04:21:44;;;;;;;7.65;2.97;;;2.50;99.90;;;;;;5071782;28;20042;-63
2023/04/02 04:24:21;;;;;;;5.13;2.85;;;2.50;99.90;;;;;;5072460;28;20040;-62
2023/04/02 04:27:08;;;;;;;5.75;2.55;;;2.50;99.90;;;;;;5063616;28;20040;-63
2023/04/02 04:29:55;;;;;;;7.28;2.65;;;2.50;99.90;;;;;;5039799;28;20056;-63
2023/04/02 04:32:31;;;;;;;7.32;3.05;;;2.50;99.90;;;;;;5071358;28;20047;-62
2023/04/02 04:35:24;;;;;;;8.45;2.72;;;2.50;99.90;;;;;;5045314;28;20104;-62
2023/04/02 04:38:06;;;;;;;5.80;2.80;;;2.50;99.90;;;;;;5066936;28;20108;-62
2023/04/02 04:40:49;;;;;;;6.18;2.83;;;2.40;99.90;;;;;;5064634;28;20047;-62
2023/04/02 04:43:19;;;;;;;5.28;2.72;;;2.40;99.90;;;;;;5071367;28;20119;-63
2023/04/02 04:45:57;;;;;;;4.97;2.90;;;2.40;99.90;;;;;;5071983;28;20048;-63
2023/04/02 04:48:28;;;;;;;5.82;3.17;;;2.40;99.90;;;;;;5071784;28;20047;-63
2023/04/02 04:50:56;;;;;;;5.28;2.92;;;2.40;99.90;;;;;;5066245;28;20347;-62
2023/04/02 04:53:24;;;;;;;6.38;2.13;;;2.40;99.90;;;;;;5062588;28;20044;-62
2023/04/02 04:56:05;;;;;;;7.47;4.25;;;2.40;99.90;;;;;;5062613;28;20044;-63
2023/04/02 04:58:44;;;;;;;3.53;2.67;;;2.40;99.90;;;;;;5056670;28;20072;-63
2023/04/02 05:01:21;;;;;;;3.50;2.88;;;2.40;99.90;;;;;;5071741;28;20113;-63
2023/04/02 05:03:55;;;;;;;7.03;2.90;;;2.40;99.90;;;;;;5071864;28;20041;-63
2023/04/02 05:06:35;;;;;;;6.97;3.10;;;2.40;99.90;;;;;;5067129;28;20044;-63
2023/04/02 05:09:23;;;;;;;5.05;3.33;;;2.40;99.90;;;;;;5052888;28;20041;-62
2023/04/02 05:12:00;;;;;;;3.80;2.85;;;2.40;99.90;;;;;;5066043;28;20040;-63
2023/04/02 05:14:39;;;;;;;6.72;2.80;;;2.30;99.90;;;;;;5071646;28;20032;-63
2023/04/02 05:17:12;;;;;;;9.20;3.00;;;2.30;99.90;;;;;;5067015;28;20037;-62
2023/04/02 05:19:47;;;;;;;9.13;3.30;;;2.30;99.90;;;;;;5071819;28;20039;-63
2023/04/02 05:22:35;;;;;;;4.40;3.30;;;2.30;99.90;;;;;;5056026;28;20410;-63
2023/04/02 05:25:25;;;;;;;6.68;3.70;;;2.30;99.90;;;;;;5066732;28;20721;-63
2023/04/02 05:28:02;;;;;;;9.15;4.43;;;2.30;99.90;;;;;;5043982;28;20052;-62
2023/04/02 05:30:28;;;;;;;5.13;3.53;;;2.30;99.90;;;;;;5053278;28;20040;-62
2023/04/02 05:33:01;;;;;;;6.15;3.83;;;2.30;99.90;;;;;;5048618;28;20107;-63
2023/04/02 05:35:32;;;;;;;7.25;4.55;;;2.30;99.90;;;;;;5059193;28;20029;-63
2023/04/02 05:38:00;;;;;;;4.88;3.40;;;2.40;99.90;;;;;;5071609;28;20432;-62
2023/04/02 05:40:37;;;;;;;5.32;3.20;;;2.40;99.90;;;;;;5064623;28;20082;-63
2023/04/02 05:43:08;;;;;;;7.15;3.63;;;2.40;99.90;;;;;;5059665;28;20037;-63
2023/04/02 05:45:37;;;;;;;5.63;3.00;;;2.40;99.90;;;;;;5032403;28;20416;-63
2023/04/02 05:48:13;;;;;;;5.05;3.00;;;2.40;99.90;;;;;;5071093;28;20045;-62
2023/04/02 05:50:43;;;;;;;5.10;3.10;;;2.40;99.90;;;;;;5071402;28;20047;-62
2023/04/02 05:53:22;;;;;;;7.80;2.90;;;2.50;99.90;;;;;;5071072;28;20075;-63
2023/04/02 05:56:00;;;;;;;3.25;2.50;;;2.50;99.90;;;;;;5061885;28;20040;-63
2023/04/02 05:58:36;;;;;;;6.45;2.90;;;2.50;99.90;;;;;;5071597;28;20032;-63
2023/04/02 06:01:10;;;;;;;6.93;2.67;;;2.50;99.90;;;;;;5075078;28;20046;-63
2023/04/02 06:03:51;;;;;;;4.70;1.90;;;2.50;99.90;;;;;;5074750;28;20115;-63
2023/04/02 06:06:20;;;;;;;5.15;1.73;;;2.50;99.90;;;;;;5057339;28;20178;-63
2023/04/02 06:08:57;;;;;;;6.00;1.92;;;2.60;99.90;;;;;;5068618;28;20045;-62
2023/04/02 06:11:29;;;;;;;5.68;2.10;;;2.60;99.90;;;;;;5053319;28;20553;-62
2023/04/02 06:13:54;;;;;;;4.40;1.80;;;2.60;99.90;;;;;;5053013;28;20098;-62
2023/04/02 06:16:25;;;;;;;5.75;2.47;;;2.60;99.90;;;;;;5068098;28;20040;-63
2023/04/02 06:18:50;;;;;;;7.97;2.20;;;2.60;99.90;;;;;;5068749;28;20044;-63
2023/04/02 06:21:19;;;;;;;5.22;2.25;;;2.60;99.90;;;;;;5074051;28;20048;-62
2023/04/02 06:23:59;;;;;;;4.35;2.42;;;2.60;99.90;;;;;;5064491;28;20033;-62
2023/04/02 06:26:33;;;;;;;5.03;2.30;;;2.60;99.90;;;;;;5056107;28;20068;-62
2023/04/02 06:29:01;;;;;;;8.25;2.80;;;2.60;99.90;;;;;;5074164;28;20048;-62
2023/04/02 06:31:48;;;;;;;2.53;2.03;;;2.60;99.90;;;;;;5053880;28;20094;-62
2023/04/02 06:34:23;;;;;;;4.43;2.17;;;2.70;99.90;;;;;;5072715;28;20060;-63
2023/04/02 06:36:53;;;;;;;4.03;1.83;;;2.70;99.90;;;;;;5068537;28;20037;-63
2023/04/02 06:39:21;;;;;;;2.75;1.80;;;2.70;99.90;;;;;;5063136;28;20107;-63
2023/04/02 06:41:58;;;;;;;4.18;1.88;;;2.70;99.90;;;;;;5068416;28;20041;-63
2023/04/02 06:44:27;;;;;;;3.50;1.98;;;2.80;99.90;;;;;;5074548;28;20040;-63
2023/04/02 06:47:04;;;;;;;6.38;2.08;;;2.80;99.90;;;;;;5074390;28;20033;-63
2023/04/02 06:49:41;;;;;;;4.80;1.80;;;2.80;99.90;;;;;;5056356;28;20057;-62
2023/04/02 06:52:22;;;;;;;3.92;1.98;;;2.80;99.90;;;;;;5066265;28;20112;-63
2023/04/02 06:54:48;;;;;;;;;;;2.90;99.90;;;;;;5044075;28;20044;-63
2023/04/02 06:57:13;;;;;;;5.93;1.80;;;2.90;99.90;;;;;;5071670;28;19920;-62
2023/04/02 06:59:39;;;;;;;3.15;1.45;;;2.90;99.90;;;;;;5074006;28;20041;-63
2023/04/02 07:02:36;;;;;;;3.47;1.60;;;2.80;99.90;;;;;;5073360;28;20040;-63
2023/04/02 07:05:05;;;;;;;3.28;1.70;;;2.90;99.90;;;;;;5073050;28;20067;-62
2023/04/02 07:07:30;;;;;;;2.25;1.25;;;2.80;99.90;;;;;;5051570;28;20040;-62
2023/04/02 07:09:56;;;;;;;5.80;2.10;;;2.90;99.90;;;;;;5063203;28;20106;-62
2023/04/02 07:12:23;;;;;;;5.10;1.70;;;2.90;99.90;;;;;;5071127;28;20461;-63
2023/04/02 07:14:50;;;;;;;4.45;1.80;;;3.00;99.90;;;;;;5073522;28;20032;-62
2023/04/02 07:17:16;;;;;;;5.35;2.00;;;3.00;99.90;;;;;;5073608;28;20498;-62
2023/04/02 07:19:44;;;;;;;5.78;2.42;;;3.00;99.90;;;;;;5055514;28;20044;-62
2023/04/02 07:22:10;;;;;;;5.43;1.98;;;3.10;99.90;;;;;;5042082;28;20095;-62
2023/04/02 07:24:36;;;;;;;4.88;1.95;;;3.10;99.90;;;;;;5064972;28;20490;-63
2023/04/02 07:27:02;;;;;;;4.28;1.83;;;3.20;99.90;;;;;;5055427;28;20098;-60
2023/04/02 07:29:27;;;;;;;6.28;2.03;;;3.20;99.90;;;;;;5055792;28;20052;-60
2023/04/02 07:31:53;;;;;;;6.07;2.28;;;3.30;99.90;;;;;;5073112;28;20462;-60
2023/04/02 07:34:18;;;;;;;6.53;1.88;;;3.30;99.90;;;;;;5073587;28;20043;-60
2023/04/02 07:36:44;;;;;;;6.07;1.90;;;3.40;99.90;;;;;;5064022;28;20397;-61
2023/04/02 07:39:11;;;;;;;6.03;2.28;;;3.30;99.90;;;;;;5070892;28;20498;-61
2023/04/02 07:41:54;;;;;;;3.22;1.52;;;3.40;99.90;;;;;;5073093;28;20044;-62
2023/04/02 07:44:19;;;;;;;4.65;1.98;;;3.50;99.90;;;;;;5054986;28;20040;-62
2023/04/02 07:46:45;;;;;;;4.65;2.00;;;3.40;99.90;;;;;;5049318;28;20461;-61
2023/04/02 07:49:11;;;;;;;3.00;2.00;;;3.40;99.90;;;;;;5070681;28;20102;-61
2023/04/02 07:51:36;;;;;;;6.63;2.60;;;3.50;99.90;;;;;;5065447;28;20147;-62
2023/04/02 07:54:02;;;;;;;5.80;2.03;;;3.50;99.90;;;;;;5060378;28;20029;-61
2023/04/02 07:56:27;;;;;;;3.53;1.52;;;3.40;99.90;;;;;;5072832;28;20031;-61
2023/04/02 07:58:53;;;;;;;3.55;2.15;;;3.50;99.90;;;;;;5072818;28;20062;-61
2023/04/02 08:01:25;;;;;;;3.72;1.73;;;3.50;99.90;;;;;;5063951;28;20047;-62
2023/04/02 08:03:53;;;;;;;4.43;2.08;;;3.50;99.90;;;;;;5072522;28;20455;-62
2023/04/02 08:06:19;;;;;;;3.38;1.65;;;3.50;99.90;;;;;;5064241;28;20041;-62
2023/04/02 08:08:45;;;;;;;5.13;2.00;;;3.60;99.90;;;;;;5049949;28;20049;-62
2023/04/02 08:11:11;;;;;;;5.00;2.10;;;3.70;99.90;;;;;;5054679;28;20036;-62
2023/04/02 08:13:37;;;;;;;4.95;2.13;;;3.80;99.90;;;;;;5054686;28;20040;-62
2023/04/02 08:16:04;;;;;;;4.40;1.52;;;3.90;99.90;;;;;;5066905;28;20028;-62
2023/04/02 08:18:30;;;;;;;2.75;2.15;;;3.90;99.90;;;;;;5054055;28;20397;-61
2023/04/02 08:20:56;;;;;;;1.98;1.60;;;3.80;99.90;;;;;;5050868;28;20052;-61
2023/04/02 08:23:22;;;;;;;4.47;2.25;;;3.90;99.90;;;;;;5063623;28;20123;-61
2023/04/02 08:25:48;;;;;;;6.85;2.08;;;4.10;99.90;;;;;;5067892;28;20442;-61
2023/04/02 08:28:14;;;;;;;5.85;1.83;;;4.40;99.90;;;;;;5072124;28;20032;-62
2023/04/02 08:30:40;;;;;;;2.20;1.85;;;4.50;99.90;;;;;;5064422;28;20501;-61
2023/04/02 08:33:06;;;;;;;2.72;1.35;;;4.50;99.90;;;;;;5072279;28;20040;-62
2023/04/02 08:35:32;;;;;;;4.50;1.50;;;4.40;99.90;;;;;;5071725;28;20039;-61
2023/04/02 08:37:57;;;;;;;2.13;1.80;;;4.30;99.90;;;;;;5045442;28;20068;-61
2023/04/02 08:40:32;;;;;;;5.93;1.75;;;4.40;99.90;;;;;;5066243;28;20029;-62
2023/04/02 08:43:29;;;;;;;7.47;1.75;;;4.50;99.90;;;;;;5071726;28;20079;-61
2023/04/02 08:46:21;;;;;;;3.22;1.77;;;4.60;99.90;;;;;;5045068;28;20053;-62
2023/04/02 08:48:54;;;;;;;5.35;2.40;;;4.80;99.90;;;;;;5014400;28;20479;-61
2023/04/02 08:51:34;;;;;;;3.45;1.73;;;4.90;99.90;;;;;;5031721;28;20048;-61
2023/04/02 08:54:07;;;;;;;2.92;1.48;;;5.00;99.90;;;;;;5043339;28;20044;-62
2023/04/02 08:56:40;;;;;;;3.25;1.67;;;5.10;99.90;;;;;;5062708;28;20071;-62
2023/04/02 08:59:32;;;;;;;3.20;1.90;;;5.10;99.90;;;;;;5062931;28;20041;-62
2023/04/02 09:01:57;;;;;;;;;;;5.20;99.90;;;;;;5054381;28;20539;-62
2023/04/02 09:04:25;;;;;;;4.85;1.98;;;5.20;99.90;;;;;;5071203;28;19962;-62
2023/04/02 09:06:54;;;;;;;4.38;1.77;;;5.30;99.90;;;;;;5063001;28;20041;-62
2023/04/02 09:09:21;;;;;;;3.75;1.42;;;5.40;99.90;;;;;;5070589;28;20086;-62
2023/04/02 09:12:02;;;;;;;5.82;1.55;;;5.40;99.90;;;;;;5064285;28;20081;-62
2023/04/02 09:14:53;;;;;;;6.63;1.83;;;5.60;99.90;;;;;;5054701;28;20036;-62
2023/04/02 09:17:21;;;;;;;2.88;1.77;;;5.60;99.90;;;;;;5070450;28;20032;-63
2023/04/02 09:19:57;;;;;;;4.75;1.95;;;5.80;99.90;;;;;;5071705;28;20394;-62
2023/04/02 09:22:30;;;;;;;5.78;2.40;;;5.90;99.90;;;;;;5064878;28;20071;-62
2023/04/02 09:25:00;;;;;;;3.22;1.98;;;5.80;99.90;;;;;;5059789;28;20048;-62
2023/04/02 09:27:31;;;;;;;4.55;1.60;;;5.90;99.90;;;;;;5066757;28;20068;-62
2023/04/02 09:30:12;;;;;;;5.50;1.73;;;6.10;99.90;;;;;;5075246;28;20094;-62
2023/04/02 09:32:51;;;;;;;1.98;1.25;;;6.20;99.90;;;;;;5061328;28;20053;-62
2023/04/02 09:35:19;;;;;;;2.90;1.33;;;6.40;99.90;;;;;;5070080;28;20029;-62
2023/04/02 09:37:46;;;;;;;4.40;1.50;;;6.50;99.90;;;;;;5074922;28;20040;-62
2023/04/02 09:40:53;;;;;;;4.22;1.77;;;6.50;99.90;;;;;;5075377;28;20085;-61
2023/04/02 09:43:18;;;;;;;3.83;1.67;;;6.50;99.90;;;;;;5052833;28;20083;-62
2023/04/02 09:46:04;;;;;;;4.10;1.50;;;6.60;99.90;;;;;;5047660;28;20450;-62
2023/04/02 09:48:39;;;;;;;5.22;1.77;;;6.50;99.90;;;;;;5067682;28;20040;-62
2023/04/02 09:51:06;;;;;;;5.60;1.90;;;6.50;99.90;;;;;;5074871;28;20040;-62
2023/04/02 09:53:38;;;;;;;3.47;1.55;;;6.50;99.90;;;;;;5075143;28;20385;-62
2023/04/02 09:56:14;;;;;;;3.75;1.40;;;6.60;99.90;;;;;;5051502;28;20575;-62
2023/04/02 09:58:41;;;;;;;4.38;1.70;;;6.60;99.90;;;;;;5068907;28;20449;-62
2023/04/02 10:01:37;;;;;;;3.92;1.58;;;6.70;99.90;;;;;;5073023;28;20037;-62
2023/04/02 10:04:05;;;;;;;3.17;1.67;;;6.70;99.90;;;;;;5064869;28;20079;-61
2023/04/02 10:06:33;;;;;;;5.30;1.70;;;6.80;99.90;;;;;;5066734;28;20033;-62
2023/04/02 10:09:20;;;;;;;4.30;1.70;;;6.90;99.90;;;;;;5075027;28;20040;-62
2023/04/02 10:11:46;;;;;;;3.97;1.58;;;7.00;99.90;;;;;;5069584;28;20123;-62
2023/04/02 10:14:22;;;;;;;4.68;1.60;;;7.00;99.90;;;;;;5074877;28;20107;-62
2023/04/02 10:16:55;;;;;;;3.88;1.80;;;7.00;99.90;;;;;;5075055;28;20036;-62
2023/04/02 10:19:36;;;;;;;3.88;1.40;;;7.00;99.90;;;;;;5067763;28;20038;-62
2023/04/02 10:22:13;;;;;;;4.22;1.80;;;7.10;99.90;;;;;;5070797;28;20112;-63
2023/04/02 10:24:39;;;;;;;2.85;1.63;;;7.20;99.90;;;;;;5072300;28;20075;-63
2023/04/02 10:27:10;;;;;;;3.75;1.75;;;7.30;99.90;;;;;;5056493;28;20072;-63
2023/04/02 10:29:51;;;;;;;3.00;1.48;;;7.30;99.90;;;;;;5074838;28;20135;-62
2023/04/02 10:32:30;;;;;;;3.00;1.60;;;7.30;99.90;;;;;;5072013;28;20037;-63
2023/04/02 10:34:59;;;;;;;4.25;1.48;;;7.30;99.90;;;;;;5069261;28;20047;-63
2023/04/02 10:37:40;;;;;;;4.13;1.33;;;7.40;99.90;;;;;;5074013;28;20047;-63
2023/04/02 10:40:13;;;;;;;3.45;1.30;;;7.50;99.90;;;;;;5060498;28;20044;-63
2023/04/02 10:42:51;;;;;;;3.70;1.50;;;7.50;99.90;;;;;;5067384;28;20037;-63
2023/04/02 10:45:42;;;;;;;4.15;1.30;;;7.50;99.90;;;;;;5074310;28;20055;-63
2023/04/02 10:48:34;;;;;;;1.98;1.20;;;7.60;99.90;;;;;;5072574;28;20043;-62
2023/04/02 10:51:09;;;;;;;3.28;1.23;;;7.60;99.90;;;;;;5061550;28;20044;-63
2023/04/02 10:53:45;;;;;;;3.38;1.30;;;7.70;99.90;;;;;;5056569;28;20045;-62
2023/04/02 10:56:11;;;;;;;4.38;1.70;;;7.70;99.90;;;;;;5073886;28;20048;-62
2023/04/02 10:59:01;;;;;;;2.72;1.35;;;7.70;99.90;;;;;;5073675;28;20036;-62
2023/04/02 11:01:29;;;;;;;2.22;1.10;;;7.70;99.90;;;;;;5049344;28;20036;-62
2023/04/02 11:04:00;;;;;;;3.10;1.30;;;7.70;99.90;;;;;;5073555;28;20033;-63
2023/04/02 11:06:31;;;;;;;4.03;1.63;;;7.70;99.90;;;;;;5073487;28;20039;-62
2023/04/02 11:09:03;;;;;;;5.07;1.67;;;7.80;99.90;;;;;;5042028;28;20110;-62
2023/04/02 11:11:38;;;;;;;4.35;1.65;;;8.00;99.90;;;;;;5057130;28;20036;-62
2023/04/02 11:14:12;;;;;;;5.10;1.55;;;8.10;99.90;;;;;;5061180;28;20044;-62
2023/04/02 11:16:37;;;;;;;5.60;1.52;;;8.20;99.90;;;;;;5059778;28;20036;-63
2023/04/02 11:19:15;;;;;;;2.38;1.58;;;8.30;99.90;;;;;;5073592;28;20098;-63
2023/04/02 11:21:43;;;;;;;3.05;1.52;;;8.30;99.90;;;;;;5072641;28;20127;-63
2023/04/02 11:24:29;;;;;;;3.05;1.42;;;8.40;99.90;;;;;;5070382;28;20044;-62
2023/04/02 11:27:09;;;;;;;2.47;1.25;;;8.40;99.90;;;;;;5065653;28;20045;-62
2023/04/02 11:29:46;;;;;;;1.98;1.35;;;8.60;99.90;;;;;;5054564;28;20067;-63
2023/04/02 11:32:23;;;;;;;6.00;1.50;;;8.60;99.90;;;;;;5045514;28;20055;-63
2023/04/02 11:34:49;;;;;;;5.95;1.38;;;8.40;99.90;;;;;;5073497;28;20047;-63
2023/04/02 11:37:33;;;;;;;3.50;1.48;;;8.40;99.90;;;;;;5055699;28;20406;-63
2023/04/02 11:40:14;;;;;;;3.33;1.30;;;8.50;99.90;;;;;;5062295;28;20494;-63
2023/04/02 11:42:50;;;;;;;4.03;1.80;;;8.50;99.90;;;;;;5063317;28;20040;-63
2023/04/02 11:45:19;;;;;;;2.47;1.50;;;8.60;99.90;;;;;;5073125;28;20531;-63
2023/04/02 11:48:16;;;;;;;4.20;1.45;;;8.70;99.90;;;;;;5073222;28;20044;-63
2023/04/02 11:50:44;;;;;;;3.40;1.67;;;8.70;99.90;;;;;;5072595;28;20070;-62
2023/04/02 11:53:09;;;;;;;3.85;1.77;;;8.80;99.90;;;;;;5037857;28;20040;-63
2023/04/02 11:55:46;;;;;;;2.28;1.17;;;8.70;99.90;;;;;;5057638;28;20036;-63
2023/04/02 11:58:33;;;;;;;4.32;1.20;;;8.70;99.90;;;;;;5070582;28;20032;-63
2023/04/02 12:01:22;;;;;;;2.90;1.17;;;8.70;99.90;;;;;;5072808;28;20452;-60
2023/04/02 12:04:11;;;;;;;3.75;1.55;;;8.70;99.90;;;;;;5072770;28;20394;-60
2023/04/02 12:06:45;;;;;;;3.00;1.30;;;8.80;99.90;;;;;;5072730;28;20068;-60
2023/04/02 12:09:14;;;;;;;5.45;1.40;;;9.00;99.90;;;;;;5065687;28;20037;-60
2023/04/02 12:11:40;;;;;;;2.97;1.10;;;9.00;99.90;;;;;;5058894;28;20041;-62
2023/04/02 12:14:41;;;;;;;4.85;1.20;;;9.00;99.90;;;;;;5062049;28;20574;-61
2023/04/02 12:17:28;;;;;;;1.83;1.02;;;9.00;99.90;;;;;;5072045;28;20036;-62
2023/04/02 12:20:19;;;;;;;1.58;1.08;;;9.00;99.90;;;;;;5072215;28;20047;-62
2023/04/02 12:22:50;;;;;;;4.70;1.42;;;8.90;99.90;;;;;;5054451;28;20063;-62
2023/04/02 12:25:33;;;;;;;2.47;1.23;;;9.00;99.90;;;;;;5061793;28;20029;-62
2023/04/02 12:28:18;;;;;;;2.58;1.45;;;8.90;99.90;;;;;;5064194;28;20037;-61
2023/04/02 12:30:46;;;;;;;1.88;1.10;;;8.90;99.90;;;;;;5060443;28;20045;-62
2023/04/02 12:33:29;;;;;;;4.57;1.48;;;9.00;99.90;;;;;;5072263;28;20041;-62
2023/04/02 12:35:57;;;;;;;2.83;1.10;;;9.10;99.90;;;;;;5072124;28;20070;-62
2023/04/02 12:38:26;;;;;;;3.13;1.10;;;9.10;99.90;;;;;;5072348;28;20079;-62
2023/04/02 12:40:55;;;;;;;3.55;1.30;;;9.10;99.90;;;;;;5068678;28;20521;-62
2023/04/02 12:43:32;;;;;;;3.25;1.65;;;9.10;99.90;;;;;;5065496;28;20036;-62
2023/04/02 12:46:01;;;;;;;3.17;1.10;;;9.10;99.90;;;;;;5038649;28;20091;-62
2023/04/02 12:48:28;;;;;;;3.65;1.40;;;9.20;99.90;;;;;;5032108;28;20037;-62
2023/04/02 12:50:55;;;;;;;3.20;1.27;;;9.20;99.90;;;;;;5031791;28;20037;-62
2023/04/02 12:53:31;;;;;;;2.97;1.20;;;9.30;99.90;;;;;;5034838;28;20040;-62
2023/04/02 12:55:56;;;;;;;4.57;1.38;;;9.40;99.90;;;;;;5049811;28;20043;-62
2023/04/02 12:58:38;;;;;;;2.40;1.00;;;9.40;99.90;;;;;;5064343;28;20036;-62
2023/04/02 13:01:23;;;;;;;1.80;1.02;;;9.40;99.90;;;;;;5061566;28;20502;-62
2023/04/02 13:04:12;;;;;;;2.53;1.00;;;9.40;99.90;;;;;;5071572;28;20039;-62
2023/04/02 13:06:40;;;;;;;2.83;0.93;;;9.40;99.90;;;;;;5071875;28;20028;-62
2023/04/02 13:09:24;;;;;;;2.58;0.98;;;9.40;99.90;;;;;;5067907;28;20537;-62
2023/04/02 13:11:50;;;;;;;2.97;1.08;;;9.40;99.90;;;;;;5071578;28;20083;-62
2023/04/02 13:14:20;;;;;;;3.80;1.35;;;9.50;99.90;;;;;;5066528;28;20041;-62
2023/04/02 13:16:45;;;;;;;3.47;1.20;;;9.50;99.90;;;;;;5044508;28;20052;-62
2023/04/02 13:19:23;;;;;;;4.53;1.30;;;9.60;99.90;;;;;;5071721;28;20032;-62
2023/04/02 13:21:49;;;;;;;2.35;0.90;;;9.60;99.90;;;;;;5071209;28;20089;-62
2023/04/02 13:24:26;;;;;;;2.72;1.60;;;9.60;99.90;;;;;;5069548;28;20094;-62
2023/04/02 13:26:55;;;;;;;1.48;0.88;;;9.70;99.90;;;;;;5084340;22;20532;-65
2023/04/02 13:29:35;;;;;;;2.10;1.02;;;9.70;99.90;;;;;;5084872;28;20089;-65
2023/04/02 13:32:06;;;;;;;2.92;1.00;;;9.80;99.90;;;;;;5075520;28;20114;-66
2023/04/02 13:34:32;;;;;;;3.25;1.08;;;9.90;99.90;;;;;;5072111;28;20040;-65
2023/04/02 13:36:58;;;;;;;2.83;0.98;;;9.90;99.90;;;;;;5067192;28;20115;-65